Time,TemperatureF,DewpointF,PressureIn,WindDirection,WindDirectionDegrees,WindSpeedMPH,WindSpeedGustMPH,Humidity,HourlyPrecipIn,Conditions,Clouds,dailyrainin,SoftwareType,DateUTC
2013-04-27 00:01:00,53.2,44.1,30.19,South,180,0.0,4.7,71,0.00,,,0.00,WUHU21623XXSP,2013-04-27 05:01:00,
2013-04-27 00:06:00,53.2,44.1,30.18,SW,225,3.6,3.6,71,0.00,,,0.00,WUHU21623XXSP,2013-04-27 05:06:00,
2013-04-27 00:11:00,52.9,44.1,30.18,South,180,0.0,3.6,72,0.00,,,0.00,WUHU21623XXSP,2013-04-27 05:11:00,
2013-04-27 00:16:00,52.3,44.0,30.18,South,180,3.6,3.6,73,0.00,,,0.00,WUHU21623XXSP,2013-04-27 05:16:00,
2013-04-27 00:21:00,52.2,44.0,30.19,SW,225,0.0,3.6,73,0.00,,,0.00,WUHU21623XXSP,2013-04-27 05:21:00,
2013-04-27 00:26:00,52.0,43.8,30.19,SE,135,0.0,5.1,73,0.00,,,0.00,WUHU21623XXSP,2013-04-27 05:26:00,
2013-04-27 00:31:00,51.6,43.6,30.19,SSW,202,3.8,5.1,74,0.00,,,0.00,WUHU21623XXSP,2013-04-27 05:31:00,
2013-04-27 00:36:00,51.6,43.6,30.19,SW,225,5.4,5.4,75,0.00,,,0.00,WUHU21623XXSP,2013-04-27 05:36:00,
2013-04-27 00:41:00,51.4,43.8,30.19,SSW,202,2.5,5.4,75,0.00,,,0.00,WUHU21623XXSP,2013-04-27 05:41:00,
2013-04-27 00:46:00,51.3,43.6,30.19,SW,225,3.1,3.1,75,0.00,,,0.00,WUHU21623XXSP,2013-04-27 05:46:00,
2013-04-27 00:51:00,51.1,43.6,30.19,SW,225,3.1,3.1,76,0.00,,,0.00,WUHU21623XXSP,2013-04-27 05:51:00,
2013-04-27 00:56:00,51.1,43.8,30.19,SSW,202,0.0,3.1,76,0.00,,,0.00,WUHU21623XXSP,2013-04-27 05:56:00,
2013-04-27 01:01:00,50.9,43.8,30.19,West,270,0.0,0.0,76,0.00,,,0.00,WUHU21623XXSP,2013-04-27 06:01:00,
2013-04-27 01:06:00,50.7,43.4,30.19,SSW,202,1.8,6.3,76,0.00,,,0.00,WUHU21623XXSP,2013-04-27 06:06:00,
2013-04-27 01:11:00,50.5,43.8,30.19,South,180,0.0,6.3,76,0.00,,,0.00,WUHU21623XXSP,2013-04-27 06:11:00,
2013-04-27 01:16:00,50.4,43.4,30.18,SSE,157,0.0,0.0,77,0.00,,,0.00,WUHU21623XXSP,2013-04-27 06:16:00,
2013-04-27 01:21:00,50.4,43.4,30.19,South,180,3.6,3.6,77,0.00,,,0.00,WUHU21623XXSP,2013-04-27 06:21:00,
2013-04-27 01:26:00,50.2,43.2,30.19,SSW,202,2.7,3.6,77,0.00,,,0.00,WUHU21623XXSP,2013-04-27 06:26:00,
2013-04-27 01:31:00,49.8,42.9,30.19,SW,225,0.0,2.7,77,0.00,,,0.00,WUHU21623XXSP,2013-04-27 06:31:00,
2013-04-27 01:36:00,49.6,43.0,30.19,SSW,202,0.0,2.7,78,0.00,,,0.00,WUHU21623XXSP,2013-04-27 06:36:00,
2013-04-27 01:41:00,49.1,42.5,30.19,ESE,112,0.0,0.0,78,0.00,,,0.00,WUHU21623XXSP,2013-04-27 06:41:00,
2013-04-27 01:46:00,48.7,42.1,30.19,WSW,247,0.0,0.0,78,0.00,,,0.00,WUHU21623XXSP,2013-04-27 06:46:00,
2013-04-27 01:51:00,48.2,41.9,30.19,East,90,0.0,0.0,78,0.00,,,0.00,WUHU21623XXSP,2013-04-27 06:51:00,
2013-04-27 01:56:00,47.8,41.6,30.19,North,0,0.0,0.0,79,0.00,,,0.00,WUHU21623XXSP,2013-04-27 06:56:00,
2013-04-27 02:01:00,47.7,41.4,30.19,North,0,0.0,0.0,80,0.00,,,0.00,WUHU21623XXSP,2013-04-27 07:01:00,
2013-04-27 02:06:00,47.5,41.8,30.19,ESE,112,0.0,0.0,80,0.00,,,0.00,WUHU21623XXSP,2013-04-27 07:06:00,
2013-04-27 02:11:00,47.1,41.3,30.19,South,180,0.0,0.0,80,0.00,,,0.00,WUHU21623XXSP,2013-04-27 07:11:00,
2013-04-27 02:16:00,46.9,41.4,30.18,NNE,22,0.0,0.0,81,0.00,,,0.00,WUHU21623XXSP,2013-04-27 07:16:00,
2013-04-27 02:21:00,46.8,41.3,30.19,ENE,67,0.0,0.0,81,0.00,,,0.00,WUHU21623XXSP,2013-04-27 07:21:00,
2013-04-27 02:26:00,46.2,41.1,30.19,East,90,0.0,0.0,81,0.00,,,0.00,WUHU21623XXSP,2013-04-27 07:26:00,
2013-04-27 02:31:00,45.5,40.4,30.18,ENE,67,0.0,0.0,82,0.00,,,0.00,WUHU21623XXSP,2013-04-27 07:31:00,
2013-04-27 02:36:00,45.3,40.2,30.18,ENE,67,0.0,0.0,82,0.00,,,0.00,WUHU21623XXSP,2013-04-27 07:36:00,
2013-04-27 02:41:00,45.1,40.3,30.18,East,90,0.0,0.0,83,0.00,,,0.00,WUHU21623XXSP,2013-04-27 07:41:00,
2013-04-27 02:46:00,44.6,39.9,30.18,East,90,0.0,0.0,83,0.00,,,0.00,WUHU21623XXSP,2013-04-27 07:46:00,
2013-04-27 02:51:00,44.4,39.9,30.18,ESE,112,0.0,0.0,84,0.00,,,0.00,WUHU21623XXSP,2013-04-27 07:51:00,
2013-04-27 02:56:00,44.2,39.7,30.18,SSW,202,0.0,0.0,84,0.00,,,0.00,WUHU21623XXSP,2013-04-27 07:56:00,
2013-04-27 03:01:00,44.2,40.0,30.18,South,180,0.0,0.0,85,0.00,,,0.00,WUHU21623XXSP,2013-04-27 08:01:00,
2013-04-27 03:05:00,44.2,40.0,30.19,SE,135,0.0,0.0,85,0.00,,,0.00,WUHU21623XXSP,2013-04-27 08:05:00,
2013-04-27 03:10:00,44.2,40.0,30.19,SE,135,0.0,0.0,85,0.00,,,0.00,WUHU21623XXSP,2013-04-27 08:10:00,
2013-04-27 03:15:00,43.9,39.6,30.19,ESE,112,0.0,0.0,85,0.00,,,0.00,WUHU21623XXSP,2013-04-27 08:15:00,
2013-04-27 03:20:00,43.7,39.8,30.19,SE,135,0.0,0.0,86,0.00,,,0.00,WUHU21623XXSP,2013-04-27 08:20:00,
2013-04-27 03:25:00,43.7,39.8,30.19,SSE,157,0.0,0.0,86,0.00,,,0.00,WUHU21623XXSP,2013-04-27 08:25:00,
2013-04-27 03:30:00,43.7,39.8,30.19,SE,135,0.0,0.0,86,0.00,,,0.00,WUHU21623XXSP,2013-04-27 08:30:00,
2013-04-27 03:35:00,43.5,39.6,30.18,SSW,202,0.0,0.0,86,0.00,,,0.00,WUHU21623XXSP,2013-04-27 08:35:00,
2013-04-27 03:40:00,43.7,40.1,30.18,SSW,202,0.0,0.0,87,0.00,,,0.00,WUHU21623XXSP,2013-04-27 08:40:00,
2013-04-27 03:45:00,43.5,39.9,30.18,ESE,112,0.0,0.0,87,0.00,,,0.00,WUHU21623XXSP,2013-04-27 08:45:00,
2013-04-27 03:50:00,43.3,39.7,30.18,ESE,112,0.0,0.0,87,0.00,,,0.00,WUHU21623XXSP,2013-04-27 08:50:00,
2013-04-27 03:55:00,43.3,39.7,30.19,ESE,112,0.0,0.0,87,0.00,,,0.00,WUHU21623XXSP,2013-04-27 08:55:00,
2013-04-27 04:00:00,43.0,39.4,30.18,ESE,112,0.0,0.0,87,0.00,,,0.00,WUHU21623XXSP,2013-04-27 09:00:00,
2013-04-27 04:05:00,42.6,39.0,30.19,ESE,112,0.0,0.0,87,0.00,,,0.00,WUHU21623XXSP,2013-04-27 09:05:00,
2013-04-27 04:10:00,42.6,39.0,30.19,SE,135,0.0,0.0,87,0.00,,,0.00,WUHU21623XXSP,2013-04-27 09:10:00,
2013-04-27 04:15:00,42.4,39.1,30.19,ESE,112,0.0,0.0,88,0.00,,,0.00,WUHU21623XXSP,2013-04-27 09:15:00,
2013-04-27 04:20:00,42.4,39.1,30.19,ESE,112,0.0,0.0,88,0.00,,,0.00,WUHU21623XXSP,2013-04-27 09:20:00,
2013-04-27 04:25:00,42.1,38.8,30.19,SSE,157,0.0,0.0,88,0.00,,,0.00,WUHU21623XXSP,2013-04-27 09:25:00,
2013-04-27 04:30:00,41.7,38.4,30.19,SSE,157,0.0,0.0,88,0.00,,,0.00,WUHU21623XXSP,2013-04-27 09:30:00,
2013-04-27 04:35:00,41.7,38.4,30.18,South,180,0.0,0.0,88,0.00,,,0.00,WUHU21623XXSP,2013-04-27 09:35:00,
2013-04-27 04:40:00,41.7,38.7,30.18,SE,135,0.0,0.0,89,0.00,,,0.00,WUHU21623XXSP,2013-04-27 09:40:00,
2013-04-27 04:45:00,41.2,37.9,30.18,SE,135,0.0,0.0,88,0.00,,,0.00,WUHU21623XXSP,2013-04-27 09:45:00,
2013-04-27 04:50:00,40.8,37.5,30.18,SE,135,0.0,0.0,88,0.00,,,0.00,WUHU21623XXSP,2013-04-27 09:50:00,
2013-04-27 04:55:00,40.6,37.3,30.18,ENE,67,0.0,0.0,88,0.00,,,0.00,WUHU21623XXSP,2013-04-27 09:55:00,
2013-04-27 05:00:00,40.3,37.1,30.18,ENE,67,0.0,0.0,88,0.00,,,0.00,WUHU21623XXSP,2013-04-27 10:00:00,
2013-04-27 05:05:00,39.9,36.9,30.18,ENE,67,0.0,0.0,89,0.00,,,0.00,WUHU21623XXSP,2013-04-27 10:05:00,
2013-04-27 05:10:00,39.9,36.9,30.18,ENE,67,0.0,0.0,89,0.00,,,0.00,WUHU21623XXSP,2013-04-27 10:10:00,
2013-04-27 05:15:00,39.9,36.9,30.18,ENE,67,0.0,0.0,89,0.00,,,0.00,WUHU21623XXSP,2013-04-27 10:15:00,
2013-04-27 05:20:00,40.1,37.1,30.18,ENE,67,0.0,0.0,89,0.00,,,0.00,WUHU21623XXSP,2013-04-27 10:20:00,
2013-04-27 05:25:00,40.3,37.3,30.17,SSE,157,0.0,0.0,89,0.00,,,0.00,WUHU21623XXSP,2013-04-27 10:25:00,
2013-04-27 05:30:00,40.3,37.6,30.18,SSE,157,0.0,0.0,90,0.00,,,0.00,WUHU21623XXSP,2013-04-27 10:30:00,
2013-04-27 05:35:00,40.1,37.4,30.18,SSE,157,0.0,0.0,90,0.00,,,0.00,WUHU21623XXSP,2013-04-27 10:35:00,
2013-04-27 05:40:00,40.1,37.4,30.18,SSE,157,0.0,0.0,90,0.00,,,0.00,WUHU21623XXSP,2013-04-27 10:40:00,
2013-04-27 05:45:00,39.7,37.0,30.18,SSE,157,0.0,0.0,90,0.00,,,0.00,WUHU21623XXSP,2013-04-27 10:45:00,
2013-04-27 05:50:00,39.4,36.7,30.18,SW,225,0.0,0.0,90,0.00,,,0.00,WUHU21623XXSP,2013-04-27 10:50:00,
2013-04-27 05:55:00,39.6,36.9,30.18,SW,225,0.0,0.0,90,0.00,,,0.00,WUHU21623XXSP,2013-04-27 10:55:00,
2013-04-27 06:00:00,39.4,36.7,30.18,SSW,202,0.0,0.0,90,0.00,,,0.00,WUHU21623XXSP,2013-04-27 11:00:00,
2013-04-27 06:05:00,39.0,36.3,30.18,WSW,247,0.0,0.0,90,0.00,,,0.00,WUHU21623XXSP,2013-04-27 11:05:00,
2013-04-27 06:10:00,39.0,36.3,30.18,SW,225,0.9,0.9,90,0.00,,,0.00,WUHU21623XXSP,2013-04-27 11:10:00,
2013-04-27 06:15:00,39.2,36.5,30.17,SW,225,1.6,2.5,90,0.00,,,0.00,WUHU21623XXSP,2013-04-27 11:15:00,
2013-04-27 06:20:00,39.4,37.0,30.17,SW,225,1.3,2.5,91,0.00,,,0.00,WUHU21623XXSP,2013-04-27 11:20:00,
2013-04-27 06:25:00,39.6,37.1,30.18,SW,225,0.0,2.2,91,0.00,,,0.00,WUHU21623XXSP,2013-04-27 11:25:00,
2013-04-27 06:30:00,39.7,37.3,30.17,SSW,202,0.0,1.8,91,0.00,,,0.00,WUHU21623XXSP,2013-04-27 11:30:00,
2013-04-27 06:35:00,39.9,37.5,30.18,SSW,202,0.0,0.0,91,0.00,,,0.00,WUHU21623XXSP,2013-04-27 11:35:00,
2013-04-27 06:40:00,40.5,38.0,30.17,ESE,112,0.0,0.0,91,0.00,,,0.00,WUHU21623XXSP,2013-04-27 11:40:00,
2013-04-27 06:45:00,40.8,38.4,30.17,ESE,112,0.0,0.0,91,0.00,,,0.00,WUHU21623XXSP,2013-04-27 11:45:00,
2013-04-27 06:50:00,40.8,38.4,30.17,ESE,112,0.0,0.0,91,0.00,,,0.00,WUHU21623XXSP,2013-04-27 11:50:00,
2013-04-27 06:55:00,41.5,39.1,30.18,ESE,112,0.0,0.0,91,0.00,,,0.00,WUHU21623XXSP,2013-04-27 11:55:00,
2013-04-27 07:00:00,42.3,39.5,30.18,ESE,112,0.0,0.0,91,0.00,,,0.00,WUHU21623XXSP,2013-04-27 12:00:00,
2013-04-27 07:05:00,43.0,40.5,30.18,ENE,67,0.0,0.0,91,0.00,,,0.00,WUHU21623XXSP,2013-04-27 12:05:00,
2013-04-27 07:10:00,43.5,41.1,30.18,East,90,0.0,0.0,91,0.00,,,0.00,WUHU21623XXSP,2013-04-27 12:10:00,
2013-04-27 07:15:00,44.4,42.0,30.18,ESE,112,0.0,0.0,91,0.00,,,0.00,WUHU21623XXSP,2013-04-27 12:15:00,
2013-04-27 07:20:00,45.3,42.9,30.17,SE,135,0.0,0.0,91,0.00,,,0.00,WUHU21623XXSP,2013-04-27 12:20:00,
2013-04-27 07:25:00,46.2,43.8,30.18,East,90,0.0,0.0,91,0.00,,,0.00,WUHU21623XXSP,2013-04-27 12:25:00,
2013-04-27 07:30:00,46.8,44.1,30.17,East,90,0.0,0.0,90,0.00,,,0.00,WUHU21623XXSP,2013-04-27 12:30:00,
2013-04-27 07:35:00,48.0,45.0,30.17,East,90,0.0,0.0,89,0.00,,,0.00,WUHU21623XXSP,2013-04-27 12:35:00,
2013-04-27 07:40:00,48.7,45.7,30.17,SW,225,0.0,0.0,89,0.00,,,0.00,WUHU21623XXSP,2013-04-27 12:40:00,
2013-04-27 07:45:00,49.6,46.2,30.17,ESE,112,0.0,0.0,88,0.00,,,0.00,WUHU21623XXSP,2013-04-27 12:45:00,
2013-04-27 07:50:00,50.4,46.6,30.17,WSW,247,0.0,0.0,87,0.00,,,0.00,WUHU21623XXSP,2013-04-27 12:50:00,
2013-04-27 07:55:00,50.9,46.8,30.16,SSW,202,2.0,2.0,86,0.00,,,0.00,WUHU21623XXSP,2013-04-27 12:55:00,
2013-04-27 08:00:00,51.4,47.2,30.16,SSW,202,2.0,2.0,85,0.00,,,0.00,WUHU21623XXSP,2013-04-27 13:00:00,
2013-04-27 08:05:00,52.0,46.9,30.16,SSW,202,4.7,4.7,84,0.00,,,0.00,WUHU21623XXSP,2013-04-27 13:05:00,
2013-04-27 08:10:00,52.5,47.5,30.16,South,180,0.0,4.7,83,0.00,,,0.00,WUHU21623XXSP,2013-04-27 13:10:00,
2013-04-27 08:15:00,52.9,47.6,30.16,SW,225,2.9,2.9,82,0.00,,,0.00,WUHU21623XXSP,2013-04-27 13:15:00,
2013-04-27 08:20:00,53.6,48.0,30.16,West,270,0.0,2.9,81,0.00,,,0.00,WUHU21623XXSP,2013-04-27 13:20:00,
2013-04-27 08:25:00,54.0,48.1,30.16,SW,225,4.7,6.0,80,0.00,,,0.00,WUHU21623XXSP,2013-04-27 13:25:00,
2013-04-27 08:30:00,54.3,48.3,30.16,WSW,247,5.8,6.0,80,0.00,,,0.00,WUHU21623XXSP,2013-04-27 13:30:00,
2013-04-27 08:35:00,55.0,48.6,30.16,SSW,202,5.4,5.8,79,0.00,,,0.00,WUHU21623XXSP,2013-04-27 13:35:00,
2013-04-27 08:40:00,54.7,47.9,30.16,SSW,202,4.7,5.4,78,0.00,,,0.00,WUHU21623XXSP,2013-04-27 13:40:00,
2013-04-27 08:48:00,55.2,48.1,30.16,SW,225,3.6,4.7,77,0.00,,,0.00,WUHU21623XXSP,2013-04-27 13:48:00,
2013-04-27 08:53:00,55.6,48.4,30.16,SW,225,3.4,3.6,77,0.00,,,0.00,WUHU21623XXSP,2013-04-27 13:53:00,
2013-04-27 08:58:00,56.3,48.8,30.16,SSW,202,0.0,3.4,76,0.00,,,0.00,WUHU21623XXSP,2013-04-27 13:58:00,
2013-04-27 09:03:00,56.8,48.9,30.16,WSW,247,4.0,4.0,75,0.00,,,0.00,WUHU21623XXSP,2013-04-27 14:03:00,
2013-04-27 09:08:00,57.0,49.1,30.16,WSW,247,3.6,4.0,75,0.00,,,0.00,WUHU21623XXSP,2013-04-27 14:08:00,
2013-04-27 09:13:00,57.7,49.5,30.16,SW,225,2.5,4.0,74,0.00,,,0.00,WUHU21623XXSP,2013-04-27 14:13:00,
2013-04-27 09:18:00,58.3,49.6,30.15,WSW,247,1.1,3.8,73,0.00,,,0.00,WUHU21623XXSP,2013-04-27 14:18:00,
2013-04-27 09:23:00,58.5,49.5,30.15,WSW,247,1.6,4.3,72,0.00,,,0.00,WUHU21623XXSP,2013-04-27 14:23:00,
2013-04-27 09:28:00,58.8,49.8,30.15,WNW,292,0.0,4.3,72,0.00,,,0.00,WUHU21623XXSP,2013-04-27 14:28:00,
2013-04-27 09:33:00,58.8,49.5,30.15,SSW,202,0.0,5.8,71,0.00,,,0.00,WUHU21623XXSP,2013-04-27 14:33:00,
2013-04-27 09:38:00,59.9,50.0,30.14,SSW,202,0.0,5.8,71,0.00,,,0.00,WUHU21623XXSP,2013-04-27 14:38:00,
2013-04-27 09:43:00,60.1,49.9,30.14,South,180,0.0,4.7,69,0.00,,,0.00,WUHU21623XXSP,2013-04-27 14:43:00,
2013-04-27 09:48:00,60.4,50.3,30.14,SW,225,4.3,4.7,69,0.00,,,0.00,WUHU21623XXSP,2013-04-27 14:48:00,
2013-04-27 09:53:00,60.1,49.5,30.14,WSW,247,0.9,4.3,68,0.00,,,0.00,WUHU21623XXSP,2013-04-27 14:53:00,
2013-04-27 09:58:00,59.9,49.6,30.14,West,270,2.5,2.5,69,0.00,,,0.00,WUHU21623XXSP,2013-04-27 14:58:00,
2013-04-27 10:03:00,59.9,49.8,30.14,SSW,202,5.1,5.1,69,0.00,,,0.00,WUHU21623XXSP,2013-04-27 15:03:00,
2013-04-27 10:08:00,60.6,49.9,30.14,SW,225,3.6,5.1,68,0.00,,,0.00,WUHU21623XXSP,2013-04-27 15:08:00,
2013-04-27 10:13:00,59.2,48.6,30.14,WSW,247,3.8,3.8,68,0.00,,,0.00,WUHU21623XXSP,2013-04-27 15:13:00,
2013-04-27 10:18:00,58.8,48.7,30.14,SW,225,2.0,3.8,69,0.00,,,0.00,WUHU21623XXSP,2013-04-27 15:18:00,
2013-04-27 10:23:00,58.8,48.7,30.14,SW,225,0.0,2.0,69,0.00,,,0.00,WUHU21623XXSP,2013-04-27 15:23:00,
2013-04-27 10:28:00,59.4,49.0,30.14,SSE,157,0.0,0.0,69,0.00,,,0.00,WUHU21623XXSP,2013-04-27 15:28:00,
2013-04-27 10:33:00,59.5,49.0,30.14,WSW,247,3.6,3.6,68,0.00,,,0.00,WUHU21623XXSP,2013-04-27 15:33:00,
2013-04-27 10:38:00,59.2,48.6,30.14,WSW,247,4.3,4.3,68,0.00,,,0.00,WUHU21623XXSP,2013-04-27 15:38:00,
2013-04-27 10:43:00,59.2,48.6,30.14,WSW,247,4.3,9.8,68,0.00,,,0.00,WUHU21623XXSP,2013-04-27 15:43:00,
2013-04-27 10:48:00,59.5,48.6,30.14,WSW,247,6.3,9.8,67,0.00,,,0.00,WUHU21623XXSP,2013-04-27 15:48:00,
2013-04-27 10:53:00,60.3,48.9,30.14,SSW,202,4.7,6.3,66,0.00,,,0.00,WUHU21623XXSP,2013-04-27 15:53:00,
2013-04-27 10:58:00,60.4,49.1,30.14,SSW,202,3.8,6.3,65,0.00,,,0.00,WUHU21623XXSP,2013-04-27 15:58:00,
2013-04-27 11:03:00,60.4,48.7,30.14,SSE,157,3.4,5.8,65,0.00,,,0.00,WUHU21623XXSP,2013-04-27 16:03:00,
2013-04-27 11:08:00,60.6,49.2,30.14,SSW,202,4.7,4.7,66,0.00,,,0.00,WUHU21623XXSP,2013-04-27 16:08:00,
2013-04-27 11:13:00,60.4,48.7,30.14,SW,225,2.2,5.1,65,0.00,,,0.00,WUHU21623XXSP,2013-04-27 16:13:00,
2013-04-27 11:18:00,60.6,48.8,30.14,SW,225,4.0,5.1,65,0.00,,,0.00,WUHU21623XXSP,2013-04-27 16:18:00,
2013-04-27 11:23:00,60.6,48.8,30.14,SSW,202,1.3,4.0,65,0.00,,,0.00,WUHU21623XXSP,2013-04-27 16:23:00,
2013-04-27 11:28:00,61.0,49.2,30.14,SW,225,5.1,5.1,65,0.00,,,0.00,WUHU21623XXSP,2013-04-27 16:28:00,
2013-04-27 11:33:00,61.0,48.8,30.14,South,180,0.0,5.1,64,0.00,,,0.00,WUHU21623XXSP,2013-04-27 16:33:00,
2013-04-27 11:38:00,61.0,48.8,30.14,SW,225,0.0,1.6,64,0.00,,,0.00,WUHU21623XXSP,2013-04-27 16:38:00,
2013-04-27 11:43:00,61.0,48.8,30.14,SSW,202,0.9,6.7,64,0.00,,,0.00,WUHU21623XXSP,2013-04-27 16:43:00,
2013-04-27 11:48:00,61.0,48.3,30.13,SW,225,5.6,6.7,63,0.00,,,0.00,WUHU21623XXSP,2013-04-27 16:48:00,
2013-04-27 11:53:00,61.0,48.3,30.13,South,180,5.8,6.3,63,0.00,,,0.00,WUHU21623XXSP,2013-04-27 16:53:00,
2013-04-27 11:58:00,61.0,48.5,30.13,SE,135,4.0,6.3,62,0.00,,,0.00,WUHU21623XXSP,2013-04-27 16:58:00,
2013-04-27 12:03:00,61.0,47.9,30.13,WSW,247,5.4,5.8,62,0.00,,,0.00,WUHU21623XXSP,2013-04-27 17:03:00,
2013-04-27 12:08:00,60.8,47.8,30.14,South,180,3.4,5.4,62,0.00,,,0.00,WUHU21623XXSP,2013-04-27 17:08:00,
2013-04-27 12:13:00,61.0,48.3,30.14,SSW,202,5.8,5.8,63,0.00,,,0.00,WUHU21623XXSP,2013-04-27 17:13:00,
2013-04-27 12:18:00,61.0,47.5,30.14,SSE,157,0.0,6.3,61,0.00,,,0.00,WUHU21623XXSP,2013-04-27 17:18:00,
2013-04-27 12:23:00,61.2,47.9,30.13,SSE,157,0.0,6.3,61,0.00,,,0.00,WUHU21623XXSP,2013-04-27 17:23:00,
2013-04-27 12:28:00,61.3,47.8,30.13,South,180,4.5,4.5,61,0.00,,,0.00,WUHU21623XXSP,2013-04-27 17:28:00,
2013-04-27 12:33:00,61.5,48.0,30.12,SSW,202,3.1,4.7,61,0.00,,,0.00,WUHU21623XXSP,2013-04-27 17:33:00,
2013-04-27 12:38:00,61.5,48.0,30.12,SSE,157,4.0,5.4,61,0.00,,,0.00,WUHU21623XXSP,2013-04-27 17:38:00,
2013-04-27 12:43:00,61.5,48.0,30.12,SW,225,8.3,8.3,61,0.00,,,0.00,WUHU21623XXSP,2013-04-27 17:43:00,
2013-04-27 12:48:00,61.9,48.2,30.12,SE,135,2.9,8.3,60,0.00,,,0.00,WUHU21623XXSP,2013-04-27 17:48:00,
2013-04-27 12:53:00,61.9,47.9,30.12,SSW,202,3.4,7.8,60,0.00,,,0.00,WUHU21623XXSP,2013-04-27 17:53:00,
2013-04-27 12:58:00,62.2,48.7,30.12,SE,135,2.2,7.8,61,0.00,,,0.00,WUHU21623XXSP,2013-04-27 17:58:00,
2013-04-27 13:03:00,62.2,48.2,30.12,ESE,112,9.2,9.2,60,0.00,,,0.00,WUHU21623XXSP,2013-04-27 18:03:00,
2013-04-27 13:08:00,62.2,47.8,30.12,SW,225,7.2,9.2,59,0.00,,,0.00,WUHU21623XXSP,2013-04-27 18:08:00,
2013-04-27 13:13:00,61.9,47.9,30.12,South,180,3.1,7.2,60,0.00,,,0.00,WUHU21623XXSP,2013-04-27 18:13:00,
2013-04-27 13:18:00,61.9,47.9,30.11,SSW,202,8.3,8.3,60,0.00,,,0.00,WUHU21623XXSP,2013-04-27 18:18:00,
2013-04-27 13:23:00,61.9,48.1,30.11,SSW,202,8.5,8.5,60,0.00,,,0.00,WUHU21623XXSP,2013-04-27 18:23:00,
2013-04-27 13:28:00,62.4,47.4,30.11,South,180,5.8,8.5,58,0.00,,,0.00,WUHU21623XXSP,2013-04-27 18:28:00,
2013-04-27 13:33:00,62.4,47.4,30.11,South,180,5.8,5.8,58,0.00,,,0.00,WUHU21623XXSP,2013-04-27 18:33:00,
2013-04-27 13:38:00,62.4,47.4,30.11,SW,225,5.1,5.8,58,0.00,,,0.00,WUHU21623XXSP,2013-04-27 18:38:00,
2013-04-27 13:43:00,63.1,47.6,30.11,South,180,1.8,6.9,57,0.00,,,0.00,WUHU21623XXSP,2013-04-27 18:43:00,
2013-04-27 13:48:00,63.3,48.2,30.11,WSW,247,0.0,7.2,58,0.00,,,0.00,WUHU21623XXSP,2013-04-27 18:48:00,
2013-04-27 13:53:00,63.3,47.3,30.10,South,180,8.7,8.7,56,0.00,,,0.00,WUHU21623XXSP,2013-04-27 18:53:00,
2013-04-27 13:58:00,63.5,47.4,30.10,SW,225,8.5,8.7,56,0.00,,,0.00,WUHU21623XXSP,2013-04-27 18:58:00,
2013-04-27 14:03:00,63.9,48.2,30.10,SSW,202,9.6,9.6,57,0.00,,,0.00,WUHU21623XXSP,2013-04-27 19:03:00,
2013-04-27 14:08:00,64.0,47.9,30.10,SW,225,12.8,12.8,56,0.00,,,0.00,WUHU21623XXSP,2013-04-27 19:08:00,
2013-04-27 14:13:00,63.9,47.8,30.10,SW,225,5.8,12.8,56,0.00,,,0.00,WUHU21623XXSP,2013-04-27 19:13:00,
2013-04-27 14:18:00,64.0,47.9,30.10,SW,225,2.2,6.0,56,0.00,,,0.00,WUHU21623XXSP,2013-04-27 19:18:00,
2013-04-27 14:23:00,64.4,48.2,30.10,South,180,5.1,6.0,56,0.00,,,0.00,WUHU21623XXSP,2013-04-27 19:23:00,
2013-04-27 14:28:00,64.2,47.6,30.09,SSW,202,0.0,8.1,55,0.00,,,0.00,WUHU21623XXSP,2013-04-27 19:28:00,
2013-04-27 14:33:00,64.2,47.6,30.09,SSW,202,0.0,8.1,55,0.00,,,0.00,WUHU21623XXSP,2013-04-27 19:33:00,
2013-04-27 14:38:00,64.2,47.6,30.09,West,270,8.3,8.3,55,0.00,,,0.00,WUHU21623XXSP,2013-04-27 19:38:00,
2013-04-27 14:43:00,64.2,48.1,30.09,SW,225,5.1,8.3,55,0.00,,,0.00,WUHU21623XXSP,2013-04-27 19:43:00,
2013-04-27 14:48:00,64.8,48.1,30.08,SSW,202,4.7,5.1,55,0.00,,,0.00,WUHU21623XXSP,2013-04-27 19:48:00,
2013-04-27 14:53:00,65.1,48.5,30.08,SSW,202,4.7,5.1,54,0.00,,,0.00,WUHU21623XXSP,2013-04-27 19:53:00,
2013-04-27 14:58:00,64.6,47.9,30.08,SSW,202,4.5,4.7,55,0.00,,,0.00,WUHU21623XXSP,2013-04-27 19:58:00,
2013-04-27 15:03:00,64.4,47.8,30.08,SE,135,2.9,4.5,55,0.00,,,0.00,WUHU21623XXSP,2013-04-27 20:03:00,
2013-04-27 15:08:00,64.2,48.2,30.08,SSW,202,0.0,4.5,55,0.00,,,0.00,WUHU21623XXSP,2013-04-27 20:08:00,
2013-04-27 15:13:00,64.6,47.9,30.08,SSE,157,2.7,6.9,55,0.00,,,0.00,WUHU21623XXSP,2013-04-27 20:13:00,
2013-04-27 15:18:00,64.6,47.4,30.07,SSE,157,2.5,6.9,55,0.00,,,0.00,WUHU21623XXSP,2013-04-27 20:18:00,
2013-04-27 15:23:00,64.6,47.4,30.06,SW,225,8.1,8.1,54,0.00,,,0.00,WUHU21623XXSP,2013-04-27 20:23:00,
2013-04-27 15:28:00,64.6,47.9,30.06,SSW,202,2.9,8.1,55,0.00,,,0.00,WUHU21623XXSP,2013-04-27 20:28:00,
2013-04-27 15:33:00,64.6,47.9,30.06,SSW,202,3.8,3.8,55,0.00,,,0.00,WUHU21623XXSP,2013-04-27 20:33:00,
2013-04-27 15:38:00,64.2,47.4,30.06,SSE,157,1.3,3.8,54,0.00,,,0.00,WUHU21623XXSP,2013-04-27 20:38:00,
2013-04-27 15:43:00,64.2,47.1,30.06,SSW,202,2.9,3.6,54,0.00,,,0.00,WUHU21623XXSP,2013-04-27 20:43:00,
2013-04-27 15:48:00,64.2,47.1,30.06,South,180,3.8,3.8,54,0.00,,,0.00,WUHU21623XXSP,2013-04-27 20:48:00,
2013-04-27 15:53:00,64.0,46.9,30.06,SW,225,7.8,7.8,54,0.00,,,0.00,WUHU21623XXSP,2013-04-27 20:53:00,
2013-04-27 15:58:00,64.0,47.4,30.06,South,180,4.5,7.8,54,0.00,,,0.00,WUHU21623XXSP,2013-04-27 20:58:00,
2013-04-27 16:03:00,64.0,46.9,30.06,SSW,202,5.4,7.8,54,0.00,,,0.00,WUHU21623XXSP,2013-04-27 21:03:00,
2013-04-27 16:08:00,63.7,47.1,30.06,South,180,4.0,5.4,55,0.00,,,0.00,WUHU21623XXSP,2013-04-27 21:08:00,
2013-04-27 16:13:00,63.9,46.8,30.05,SSW,202,4.3,5.4,54,0.00,,,0.00,WUHU21623XXSP,2013-04-27 21:13:00,
2013-04-27 16:18:00,64.0,46.9,30.05,SW,225,1.3,4.3,55,0.00,,,0.00,WUHU21623XXSP,2013-04-27 21:18:00,
2013-04-27 16:23:00,64.0,46.9,30.05,SSE,157,0.0,5.8,54,0.00,,,0.00,WUHU21623XXSP,2013-04-27 21:23:00,
2013-04-27 16:28:00,63.7,46.6,30.05,SSW,202,7.6,7.6,54,0.00,,,0.00,WUHU21623XXSP,2013-04-27 21:28:00,
2013-04-27 16:33:00,63.7,46.6,30.05,SSE,157,2.9,7.6,54,0.00,,,0.00,WUHU21623XXSP,2013-04-27 21:33:00,
2013-04-27 16:38:00,63.7,47.1,30.05,South,180,2.2,4.0,55,0.00,,,0.00,WUHU21623XXSP,2013-04-27 21:38:00,
2013-04-27 16:43:00,63.7,47.1,30.05,SSE,157,4.3,8.9,55,0.00,,,0.00,WUHU21623XXSP,2013-04-27 21:43:00,
2013-04-27 16:48:00,63.7,47.6,30.05,ESE,112,5.1,8.9,56,0.00,,,0.00,WUHU21623XXSP,2013-04-27 21:48:00,
2013-04-27 16:53:00,63.5,46.9,30.04,SW,225,4.7,5.1,55,0.00,,,0.00,WUHU21623XXSP,2013-04-27 21:53:00,
2013-04-27 16:58:00,63.5,46.9,30.04,SSW,202,2.9,4.7,55,0.00,,,0.00,WUHU21623XXSP,2013-04-27 21:58:00,
2013-04-27 17:03:00,63.3,46.8,30.04,SW,225,0.0,6.7,55,0.00,,,0.00,WUHU21623XXSP,2013-04-27 22:03:00,
2013-04-27 17:08:00,63.5,46.9,30.04,SW,225,1.8,6.7,55,0.00,,,0.00,WUHU21623XXSP,2013-04-27 22:08:00,
2013-04-27 17:13:00,63.1,46.6,30.04,SSW,202,0.0,6.0,55,0.00,,,0.00,WUHU21623XXSP,2013-04-27 22:13:00,
2013-04-27 17:18:00,63.0,46.0,30.04,WSW,247,2.0,6.0,54,0.00,,,0.00,WUHU21623XXSP,2013-04-27 22:18:00,
2013-04-27 17:23:00,62.8,46.3,30.04,SSW,202,1.3,2.2,55,0.00,,,0.00,WUHU21623XXSP,2013-04-27 22:23:00,
2013-04-27 17:28:00,62.4,46.0,30.04,South,180,4.7,5.4,55,0.00,,,0.00,WUHU21623XXSP,2013-04-27 22:28:00,
2013-04-27 17:33:00,62.4,46.0,30.04,SSW,202,3.8,5.4,55,0.00,,,0.00,WUHU21623XXSP,2013-04-27 22:33:00,
2013-04-27 17:38:00,62.4,46.5,30.04,SE,135,2.9,3.8,56,0.00,,,0.00,WUHU21623XXSP,2013-04-27 22:38:00,
2013-04-27 17:43:00,62.2,46.3,30.04,SW,225,4.9,4.9,56,0.00,,,0.00,WUHU21623XXSP,2013-04-27 22:43:00,
2013-04-27 17:48:00,62.1,46.3,30.04,SSW,202,3.6,4.9,56,0.00,,,0.00,WUHU21623XXSP,2013-04-27 22:48:00,
2013-04-27 17:53:00,61.9,46.0,30.04,West,270,4.0,4.0,56,0.00,,,0.00,WUHU21623XXSP,2013-04-27 22:53:00,
2013-04-27 17:58:00,61.7,46.3,30.03,SW,225,4.5,4.5,57,0.00,,,0.00,WUHU21623XXSP,2013-04-27 22:58:00,
2013-04-27 18:03:00,61.7,46.3,30.03,South,180,0.0,4.5,57,0.00,,,0.00,WUHU21623XXSP,2013-04-27 23:03:00,
2013-04-27 18:08:00,61.5,46.6,30.03,South,180,1.3,3.1,58,0.00,,,0.00,WUHU21623XXSP,2013-04-27 23:08:00,
2013-04-27 18:13:00,61.7,46.3,30.03,SW,225,1.6,3.1,57,0.00,,,0.00,WUHU21623XXSP,2013-04-27 23:13:00,
2013-04-27 18:18:00,61.5,46.1,30.03,SE,135,2.2,2.2,57,0.00,,,0.00,WUHU21623XXSP,2013-04-27 23:18:00,
2013-04-27 18:23:00,61.7,46.1,30.03,SSW,202,1.6,2.2,57,0.00,,,0.00,WUHU21623XXSP,2013-04-27 23:23:00,
2013-04-27 18:28:00,61.7,46.3,30.03,SSW,202,5.6,5.6,57,0.00,,,0.00,WUHU21623XXSP,2013-04-27 23:28:00,
2013-04-27 18:33:00,61.7,46.3,30.02,SSW,202,0.0,5.6,57,0.00,,,0.00,WUHU21623XXSP,2013-04-27 23:33:00,
2013-04-27 18:38:00,61.5,46.1,30.02,WSW,247,2.2,4.0,57,0.00,,,0.00,WUHU21623XXSP,2013-04-27 23:38:00,
2013-04-27 18:43:00,61.5,46.1,30.02,WSW,247,1.6,2.2,57,0.00,,,0.00,WUHU21623XXSP,2013-04-27 23:43:00,
2013-04-27 18:48:00,61.3,46.0,30.02,SW,225,0.0,2.0,57,0.00,,,0.00,WUHU21623XXSP,2013-04-27 23:48:00,
2013-04-27 18:53:00,61.2,46.3,30.02,SSW,202,0.0,2.0,58,0.00,,,0.00,WUHU21623XXSP,2013-04-27 23:53:00,
2013-04-27 18:58:00,60.8,46.0,30.01,WSW,247,2.9,2.9,58,0.00,,,0.00,WUHU21623XXSP,2013-04-27 23:58:00,
2013-04-27 19:03:00,60.8,46.0,30.01,SW,225,2.2,2.9,58,0.00,,,0.00,WUHU21623XXSP,2013-04-28 00:03:00,
2013-04-27 19:08:00,60.6,46.3,30.02,WSW,247,0.0,2.2,59,0.00,,,0.00,WUHU21623XXSP,2013-04-28 00:08:00,
2013-04-27 19:13:00,60.4,46.1,30.01,South,180,0.0,0.0,59,0.00,,,0.00,WUHU21623XXSP,2013-04-28 00:13:00,
2013-04-27 19:18:00,60.3,46.4,30.02,South,180,0.0,0.0,60,0.00,,,0.00,WUHU21623XXSP,2013-04-28 00:18:00,
2013-04-27 19:23:00,59.9,46.0,30.02,South,180,0.0,0.0,60,0.00,,,0.00,WUHU21623XXSP,2013-04-28 00:23:00,
2013-04-27 19:28:00,59.5,45.7,30.02,SE,135,0.0,0.0,60,0.00,,,0.00,WUHU21623XXSP,2013-04-28 00:28:00,
2013-04-27 19:33:00,59.4,45.5,30.02,SSW,202,0.0,0.0,60,0.00,,,0.00,WUHU21623XXSP,2013-04-28 00:33:00,
2013-04-27 19:38:00,59.4,45.5,30.01,SW,225,0.0,0.0,60,0.00,,,0.00,WUHU21623XXSP,2013-04-28 00:38:00,
2013-04-27 19:43:00,59.0,45.6,30.01,SW,225,0.0,0.0,61,0.00,,,0.00,WUHU21623XXSP,2013-04-28 00:43:00,
2013-04-27 19:48:00,58.5,45.5,30.01,South,180,0.0,0.0,62,0.00,,,0.00,WUHU21623XXSP,2013-04-28 00:48:00,
2013-04-27 19:53:00,57.9,45.0,30.01,South,180,0.0,0.0,62,0.00,,,0.00,WUHU21623XXSP,2013-04-28 00:53:00,
2013-04-27 19:58:00,57.4,45.2,30.01,South,180,0.0,0.0,63,0.00,,,0.00,WUHU21623XXSP,2013-04-28 00:58:00,
2013-04-27 20:03:00,56.8,44.3,30.01,South,180,0.0,0.0,63,0.00,,,0.00,WUHU21623XXSP,2013-04-28 01:03:00,
2013-04-27 20:08:00,56.5,44.4,30.01,South,180,0.0,0.0,64,0.00,,,0.00,WUHU21623XXSP,2013-04-28 01:08:00,
2013-04-27 20:13:00,55.6,44.0,30.00,South,180,0.0,0.0,65,0.00,,,0.00,WUHU21623XXSP,2013-04-28 01:13:00,
2013-04-27 20:18:00,55.2,43.6,30.00,South,180,0.0,0.0,65,0.00,,,0.00,WUHU21623XXSP,2013-04-28 01:18:00,
2013-04-27 20:23:00,54.7,43.5,30.00,South,180,0.0,0.0,66,0.00,,,0.00,WUHU21623XXSP,2013-04-28 01:23:00,
2013-04-27 20:28:00,54.3,43.6,30.01,West,270,0.0,0.0,67,0.00,,,0.00,WUHU21623XXSP,2013-04-28 01:28:00,
2013-04-27 20:33:00,54.1,43.4,30.00,NW,315,0.0,0.0,67,0.00,,,0.00,WUHU21623XXSP,2013-04-28 01:33:00,
2013-04-27 20:38:00,53.8,43.0,30.00,NW,315,0.0,0.0,67,0.00,,,0.00,WUHU21623XXSP,2013-04-28 01:38:00,
2013-04-27 20:43:00,52.7,42.4,30.00,WNW,292,0.0,0.0,68,0.00,,,0.00,WUHU21623XXSP,2013-04-28 01:43:00,
2013-04-27 20:48:00,51.6,42.3,30.00,NW,315,0.0,0.0,70,0.00,,,0.00,WUHU21623XXSP,2013-04-28 01:48:00,
2013-04-27 20:53:00,51.4,42.4,30.00,WNW,292,0.0,0.0,71,0.00,,,0.00,WUHU21623XXSP,2013-04-28 01:53:00,
2013-04-27 20:58:00,50.7,42.0,30.00,SW,225,0.0,0.0,72,0.00,,,0.00,WUHU21623XXSP,2013-04-28 01:58:00,
2013-04-27 21:03:00,50.2,41.8,30.01,SW,225,0.0,0.0,73,0.00,,,0.00,WUHU21623XXSP,2013-04-28 02:03:00,
2013-04-27 21:08:00,49.6,41.6,30.01,SW,225,0.0,0.0,74,0.00,,,0.00,WUHU21623XXSP,2013-04-28 02:08:00,
2013-04-27 21:13:00,48.9,41.3,30.00,WNW,292,0.0,0.0,75,0.00,,,0.00,WUHU21623XXSP,2013-04-28 02:13:00,
2013-04-27 21:18:00,49.3,42.0,30.00,WNW,292,0.0,0.0,76,0.00,,,0.00,WUHU21623XXSP,2013-04-28 02:18:00,
2013-04-27 21:23:00,49.1,41.8,30.00,North,0,0.0,0.0,76,0.00,,,0.00,WUHU21623XXSP,2013-04-28 02:23:00,
2013-04-27 21:28:00,48.4,41.1,30.00,NNW,337,0.0,0.0,76,0.00,,,0.00,WUHU21623XXSP,2013-04-28 02:28:00,
2013-04-27 21:33:00,48.0,41.1,30.00,NNW,337,0.0,0.0,77,0.00,,,0.00,WUHU21623XXSP,2013-04-28 02:33:00,
2013-04-27 21:38:00,47.3,40.4,30.00,NE,45,0.0,0.0,77,0.00,,,0.00,WUHU21623XXSP,2013-04-28 02:38:00,
2013-04-27 21:43:00,46.0,39.6,30.00,NE,45,0.0,0.0,78,0.00,,,0.00,WUHU21623XXSP,2013-04-28 02:43:00,
2013-04-27 21:48:00,45.3,39.1,29.99,NE,45,0.0,0.0,78,0.00,,,0.00,WUHU21623XXSP,2013-04-28 02:48:00,
2013-04-27 21:53:00,45.3,39.2,30.00,NE,45,0.0,0.0,79,0.00,,,0.00,WUHU21623XXSP,2013-04-28 02:53:00,
2013-04-27 21:58:00,45.0,39.4,29.99,NE,45,0.0,0.0,80,0.00,,,0.00,WUHU21623XXSP,2013-04-28 02:58:00,
2013-04-27 22:03:00,44.6,39.2,29.99,NE,45,0.0,0.0,81,0.00,,,0.00,WUHU21623XXSP,2013-04-28 03:03:00,
2013-04-27 22:08:00,44.4,39.0,29.99,NE,45,0.0,0.0,81,0.00,,,0.00,WUHU21623XXSP,2013-04-28 03:08:00,
2013-04-27 22:13:00,43.9,38.4,29.98,NE,45,0.0,0.0,82,0.00,,,0.00,WUHU21623XXSP,2013-04-28 03:13:00,
2013-04-27 22:18:00,43.7,38.6,29.99,NNE,22,0.0,0.0,82,0.00,,,0.00,WUHU21623XXSP,2013-04-28 03:18:00,
2013-04-27 22:23:00,43.5,38.4,29.98,NNE,22,0.0,0.0,82,0.00,,,0.00,WUHU21623XXSP,2013-04-28 03:23:00,
2013-04-27 22:28:00,43.3,38.5,29.99,NNE,22,0.0,0.0,83,0.00,,,0.00,WUHU21623XXSP,2013-04-28 03:28:00,
2013-04-27 22:33:00,43.0,38.3,29.99,NNE,22,0.0,0.0,83,0.00,,,0.00,WUHU21623XXSP,2013-04-28 03:33:00,
2013-04-27 22:38:00,42.6,37.8,29.98,NNE,22,0.0,0.0,83,0.00,,,0.00,WUHU21623XXSP,2013-04-28 03:38:00,
2013-04-27 22:43:00,42.1,37.5,29.98,NNE,22,0.0,0.0,84,0.00,,,0.00,WUHU21623XXSP,2013-04-28 03:43:00,
2013-04-27 22:48:00,42.1,37.5,29.98,NNE,22,0.0,0.0,84,0.00,,,0.00,WUHU21623XXSP,2013-04-28 03:48:00,
2013-04-27 22:53:00,42.1,37.5,29.98,NNE,22,0.0,0.0,84,0.00,,,0.00,WUHU21623XXSP,2013-04-28 03:53:00,
2013-04-27 22:58:00,41.9,37.7,29.98,NNE,22,0.0,0.0,85,0.00,,,0.00,WUHU21623XXSP,2013-04-28 03:58:00,
2013-04-27 23:01:00,41.9,37.7,29.98,NNE,22,0.0,0.0,85,0.00,,,0.00,WUHU21623XXSP,2013-04-28 04:01:00,
2013-04-27 23:06:00,41.7,37.5,29.98,NNE,22,0.0,0.0,85,0.00,,,0.00,WUHU21623XXSP,2013-04-28 04:06:00,
2013-04-27 23:11:00,41.2,37.0,29.98,NNE,22,0.0,0.0,85,0.00,,,0.00,WUHU21623XXSP,2013-04-28 04:11:00,
2013-04-27 23:16:00,40.8,36.6,29.98,NNE,22,0.0,0.0,85,0.00,,,0.00,WUHU21623XXSP,2013-04-28 04:16:00,
2013-04-27 23:21:00,40.3,36.4,29.98,NNE,22,0.0,0.0,86,0.00,,,0.00,WUHU21623XXSP,2013-04-28 04:21:00,
2013-04-27 23:26:00,40.1,36.2,29.98,NNE,22,0.0,0.0,86,0.00,,,0.00,WUHU21623XXSP,2013-04-28 04:26:00,
2013-04-27 23:31:00,40.6,36.7,29.98,NNE,22,0.0,0.0,86,0.00,,,0.00,WUHU21623XXSP,2013-04-28 04:31:00,
2013-04-27 23:36:00,40.6,36.7,29.97,NNE,22,0.0,0.0,86,0.00,,,0.00,WUHU21623XXSP,2013-04-28 04:36:00,
2013-04-27 23:41:00,40.3,36.7,29.96,NNE,22,0.0,0.0,86,0.00,,,0.00,WUHU21623XXSP,2013-04-28 04:41:00,
2013-04-27 23:46:00,39.9,36.4,29.97,NNE,22,0.0,0.0,87,0.00,,,0.00,WUHU21623XXSP,2013-04-28 04:46:00,
2013-04-27 23:51:00,39.6,35.7,29.97,NNE,22,0.0,0.0,86,0.00,,,0.00,WUHU21623XXSP,2013-04-28 04:51:00,
2013-04-27 23:56:00,39.4,35.8,29.96,NNE,22,0.0,0.0,87,0.00,,,0.00,WUHU21623XXSP,2013-04-28 04:56:00,